Time;durP1;ratioP1;P1;durP2;ratioP2;P2;SDS_P1;SDS_P2;PMS_P1;PMS_P2;Temp;Humidity;BMP_temperature;BMP_pressure;BME280_temperature;BME280_humidity;BME280_pressure;Samples;Min_cycle;Max_cycle;Signal;HPM_P1;HPM_P2
2022/04/28 00:02:18;;;;;;;6.95;4.95;;;8.40;61.00;;;;;;5099141;28;20028;-57
2022/04/28 00:04:43;;;;;;;5.95;4.55;;;8.40;61.10;;;;;;5100083;28;20074;-58
2022/04/28 00:07:09;;;;;;;8.05;5.38;;;8.40;61.10;;;;;;5099136;28;20027;-58
2022/04/28 00:09:35;;;;;;;9.27;4.85;;;8.40;61.10;;;;;;5091326;28;20039;-58
2022/04/28 00:12:01;;;;;;;6.28;4.50;;;8.30;61.10;;;;;;5102354;28;20111;-58
2022/04/28 00:14:26;;;;;;;7.70;4.35;;;8.30;61.10;;;;;;5105743;28;20066;-57
2022/04/28 00:16:52;;;;;;;7.07;4.60;;;8.30;61.10;;;;;;5104201;28;20028;-58
2022/04/28 00:19:18;;;;;;;9.27;4.78;;;8.30;61.10;;;;;;5100541;28;20024;-58
2022/04/28 00:21:43;;;;;;;5.38;4.10;;;8.20;61.00;;;;;;5101448;28;20034;-58
2022/04/28 00:24:09;;;;;;;7.13;4.40;;;8.20;61.00;;;;;;5097532;28;20042;-57
2022/04/28 00:26:35;;;;;;;8.25;4.50;;;8.20;61.00;;;;;;5097880;28;20114;-57
2022/04/28 00:29:00;;;;;;;6.28;4.65;;;8.20;61.00;;;;;;5087571;28;20025;-58
2022/04/28 00:31:26;;;;;;;8.02;4.68;;;8.10;61.00;;;;;;5103259;28;20024;-58
2022/04/28 00:33:52;;;;;;;5.90;4.32;;;8.10;61.10;;;;;;5107808;28;20028;-58
2022/04/28 00:36:17;;;;;;;6.72;4.40;;;8.10;61.20;;;;;;5108938;28;20032;-58
2022/04/28 00:38:43;;;;;;;8.65;4.65;;;8.00;61.30;;;;;;5111807;28;20023;-58
2022/04/28 00:41:09;;;;;;;7.03;4.35;;;8.00;61.40;;;;;;5097910;28;20024;-58
2022/04/28 00:43:52;;;;;;;6.30;4.40;;;8.00;61.60;;;;;;5104878;28;20090;-58
2022/04/28 00:46:18;;;;;;;6.18;4.47;;;8.00;62.00;;;;;;5105734;28;20034;-58
2022/04/28 00:51:30;;;;;;;4.63;3.22;;;7.90;61.30;;;;;;5107311;28;20499;-58
2022/04/28 00:53:58;;;;;;;6.70;4.38;;;7.90;61.30;;;;;;5094174;28;20092;-58
2022/04/28 00:56:26;;;;;;;7.43;4.38;;;7.90;61.20;;;;;;5112097;28;20038;-57
2022/04/28 00:58:53;;;;;;;5.65;4.53;;;7.80;61.20;;;;;;5104078;28;20046;-58
2022/04/28 01:01:18;;;;;;;5.07;4.30;;;7.80;61.50;;;;;;5100491;28;20050;-59
2022/04/28 01:03:46;;;;;;;7.57;5.30;;;7.80;61.50;;;;;;5107416;28;20027;-58
2022/04/28 01:06:12;;;;;;;5.35;4.82;;;7.80;61.60;;;;;;5107450;28;20111;-58
2022/04/28 01:08:38;;;;;;;5.82;4.75;;;7.70;61.60;;;;;;5106981;28;20032;-59
2022/04/28 01:11:04;;;;;;;7.68;4.60;;;7.70;61.60;;;;;;5104196;28;20036;-58
2022/04/28 01:13:31;;;;;;;7.82;4.70;;;7.70;61.50;;;;;;5100930;28;20030;-59
2022/04/28 01:15:57;;;;;;;6.75;4.97;;;7.70;61.50;;;;;;5101128;28;20099;-57
2022/04/28 01:18:22;;;;;;;9.75;4.60;;;7.70;61.50;;;;;;5099297;28;20039;-59
2022/04/28 01:20:48;;;;;;;6.55;4.72;;;7.60;61.40;;;;;;5098202;28;20379;-57
2022/04/28 01:23:14;;;;;;;6.53;4.55;;;7.60;61.30;;;;;;5094189;28;20032;-58
2022/04/28 01:25:40;;;;;;;7.40;5.00;;;7.60;61.40;;;;;;5093680;28;20028;-58
2022/04/28 01:28:05;;;;;;;7.03;4.70;;;7.60;61.50;;;;;;5101625;28;20024;-58
2022/04/28 01:30:33;;;;;;;6.53;4.57;;;7.60;61.40;;;;;;5097113;28;20367;-58
2022/04/28 01:33:00;;;;;;;6.25;4.50;;;7.50;61.40;;;;;;5106438;28;20414;-58
2022/04/28 01:35:26;;;;;;;6.90;4.85;;;7.50;61.40;;;;;;5097793;28;20028;-57
2022/04/28 01:37:52;;;;;;;5.40;4.13;;;7.50;61.20;;;;;;5096668;28;20035;-58
2022/04/28 01:40:20;;;;;;;6.65;4.45;;;7.50;61.10;;;;;;5098910;28;20035;-58
2022/04/28 01:42:47;;;;;;;5.13;4.20;;;7.40;61.40;;;;;;5102899;28;20066;-58
2022/04/28 01:45:14;;;;;;;7.03;4.43;;;7.40;61.60;;;;;;5100037;28;20094;-58
2022/04/28 01:47:39;;;;;;;6.25;4.78;;;7.40;61.70;;;;;;5105458;28;20020;-58
2022/04/28 01:50:08;;;;;;;8.38;4.90;;;7.40;61.60;;;;;;5099862;28;20067;-58
2022/04/28 01:55:18;;;;;;;7.05;4.60;;;7.30;61.70;;;;;;5102169;28;20410;-58
2022/04/28 01:57:44;;;;;;;5.28;4.25;;;7.30;62.50;;;;;;5102603;28;20042;-58
2022/04/28 02:00:10;;;;;;;8.52;4.80;;;7.30;61.80;;;;;;5104176;28;20042;-58
2022/04/28 02:02:36;;;;;;;5.30;4.63;;;7.30;61.80;;;;;;5096271;28;20048;-57
2022/04/28 02:05:03;;;;;;;5.90;4.35;;;7.30;61.70;;;;;;5110365;28;20031;-58
2022/04/28 02:07:29;;;;;;;6.35;4.65;;;7.30;61.70;;;;;;5101681;28;20051;-58
2022/04/28 02:09:56;;;;;;;5.20;4.22;;;7.20;61.60;;;;;;5099037;28;20043;-58
2022/04/28 02:12:22;;;;;;;7.20;4.60;;;7.20;61.60;;;;;;5102020;28;20027;-57
2022/04/28 02:14:47;;;;;;;4.32;3.92;;;7.20;61.70;;;;;;5106080;28;20066;-58
2022/04/28 02:17:18;;;;;;;5.75;4.53;;;7.10;61.50;;;;;;5104172;28;20812;-57
2022/04/28 02:19:44;;;;;;;4.72;4.15;;;7.10;61.70;;;;;;5109026;28;20023;-58
2022/04/28 02:22:09;;;;;;;6.07;4.10;;;7.10;61.70;;;;;;5095400;28;20054;-57
2022/04/28 02:24:35;;;;;;;5.10;3.67;;;7.00;61.80;;;;;;5107234;28;20032;-57
2022/04/28 02:27:00;;;;;;;13.02;4.70;;;7.10;62.10;;;;;;5091711;28;20032;-57
2022/04/28 02:29:26;;;;;;;5.10;4.20;;;7.00;62.10;;;;;;5099774;28;20031;-58
2022/04/28 02:31:52;;;;;;;6.35;3.92;;;7.00;62.00;;;;;;5095377;28;20039;-58
2022/04/28 02:34:17;;;;;;;5.07;4.00;;;7.00;62.00;;;;;;5107738;28;20054;-58
2022/04/28 02:36:43;;;;;;;6.18;4.15;;;6.90;61.90;;;;;;5098530;28;20032;-57
2022/04/28 02:39:09;;;;;;;6.15;4.25;;;6.90;62.00;;;;;;5102644;28;20032;-56
2022/04/28 02:41:36;;;;;;;8.13;4.47;;;6.90;62.10;;;;;;5095498;28;20020;-58
2022/04/28 02:44:02;;;;;;;8.05;4.72;;;6.90;62.20;;;;;;5100523;28;20042;-58
2022/04/28 02:46:29;;;;;;;4.97;4.22;;;6.90;62.30;;;;;;5094333;28;20021;-58
2022/04/28 02:48:55;;;;;;;5.78;4.05;;;6.90;62.30;;;;;;5095127;28;20075;-57
2022/04/28 02:51:21;;;;;;;5.90;4.07;;;6.80;62.30;;;;;;5099167;28;20038;-58
2022/04/28 02:53:46;;;;;;;6.78;4.22;;;6.80;62.20;;;;;;5090837;28;20028;-58
2022/04/28 02:56:12;;;;;;;4.43;3.88;;;6.80;62.20;;;;;;5103560;28;20043;-57
2022/04/28 02:58:38;;;;;;;6.18;4.22;;;6.80;62.20;;;;;;5105560;28;20087;-58
2022/04/28 03:01:04;;;;;;;5.50;3.97;;;6.70;62.30;;;;;;5090771;28;20036;-58
2022/04/28 03:03:33;;;;;;;6.95;4.50;;;6.70;62.10;;;;;;5102972;28;20024;-58
2022/04/28 03:11:28;;;;;;;6.00;4.40;;;6.70;62.20;;;;;;5100667;28;20035;-57
2022/04/28 03:13:56;;;;;;;5.88;4.22;;;6.60;62.10;;;;;;5101122;28;20025;-57
2022/04/28 03:16:22;;;;;;;7.47;4.13;;;6.60;62.10;;;;;;5092968;28;20028;-57
2022/04/28 03:18:48;;;;;;;5.82;4.75;;;6.60;62.20;;;;;;5091698;28;20055;-57
2022/04/28 03:21:14;;;;;;;5.90;4.50;;;6.50;62.20;;;;;;5108188;28;20050;-58
2022/04/28 03:23:40;;;;;;;7.60;4.35;;;6.50;62.30;;;;;;5099964;28;20028;-58
2022/04/28 03:26:05;;;;;;;7.28;4.15;;;6.50;62.50;;;;;;5117825;28;20023;-57
2022/04/28 03:28:34;;;;;;;11.23;4.25;;;6.50;62.50;;;;;;5100498;28;20147;-58
2022/04/28 03:31:01;;;;;;;7.22;4.47;;;6.50;62.50;;;;;;5099526;28;20031;-59
2022/04/28 03:33:27;;;;;;;9.13;4.25;;;6.40;62.40;;;;;;5109719;28;20087;-58
2022/04/28 03:35:52;;;;;;;6.82;4.80;;;6.40;62.30;;;;;;5102178;28;20035;-57
2022/04/28 03:38:18;;;;;;;5.65;4.47;;;6.40;62.40;;;;;;5103393;28;20028;-58
2022/04/28 03:40:44;;;;;;;4.72;4.18;;;6.40;62.40;;;;;;5102129;28;20020;-57
2022/04/28 03:43:10;;;;;;;5.53;3.95;;;6.30;63.10;;;;;;5099957;28;20687;-56
2022/04/28 03:45:36;;;;;;;5.63;4.20;;;6.30;62.30;;;;;;5093868;28;20024;-58
2022/04/28 03:48:03;;;;;;;7.18;4.35;;;6.30;62.50;;;;;;5101161;28;20079;-58
2022/04/28 03:50:30;;;;;;;7.63;4.45;;;6.30;62.40;;;;;;5094037;28;20097;-56
2022/04/28 03:52:57;;;;;;;7.55;4.22;;;6.30;62.50;;;;;;5092546;28;20028;-58
2022/04/28 03:55:23;;;;;;;6.95;4.90;;;6.20;62.40;;;;;;5105956;28;20032;-58
2022/04/28 03:57:49;;;;;;;6.50;5.00;;;6.20;62.50;;;;;;5090576;28;20033;-57
2022/04/28 04:00:15;;;;;;;6.20;4.90;;;6.20;62.30;;;;;;5097056;28;20024;-58
2022/04/28 04:02:41;;;;;;;6.55;4.80;;;6.10;62.30;;;;;;5106564;28;20042;-58
2022/04/28 04:05:07;;;;;;;10.13;4.95;;;6.10;62.50;;;;;;5100494;28;20431;-58
2022/04/28 04:07:34;;;;;;;8.90;5.47;;;6.10;62.60;;;;;;5101649;28;20367;-57
2022/04/28 04:10:00;;;;;;;9.45;4.45;;;6.10;62.60;;;;;;5098535;28;20474;-58
2022/04/28 04:12:26;;;;;;;11.30;4.95;;;6.10;62.70;;;;;;5102431;28;20137;-58
2022/04/28 04:14:55;;;;;;;6.40;4.65;;;6.10;62.70;;;;;;5095992;28;20044;-58
2022/04/28 04:17:21;;;;;;;8.63;5.13;;;6.10;62.70;;;;;;5106193;28;20028;-58
2022/04/28 04:19:47;;;;;;;8.57;5.57;;;6.10;62.70;;;;;;5102340;28;20046;-58
2022/04/28 04:22:12;;;;;;;7.82;5.55;;;6.00;62.60;;;;;;5099702;28;20050;-58
2022/04/28 04:24:40;;;;;;;8.05;6.13;;;6.00;62.60;;;;;;5101462;28;20024;-57
2022/04/28 04:27:06;;;;;;;8.52;5.93;;;6.00;62.90;;;;;;5093905;28;20036;-57
2022/04/28 04:29:32;;;;;;;7.65;5.63;;;6.10;62.90;;;;;;5093631;28;20020;-58
2022/04/28 04:34:41;;;;;;;8.45;5.90;;;6.00;62.90;;;;;;5104949;28;20097;-58
2022/04/28 04:37:07;;;;;;;9.98;5.50;;;6.00;62.80;;;;;;5099490;28;20031;-58
2022/04/28 04:39:33;;;;;;;7.45;5.45;;;6.00;63.00;;;;;;5090898;28;20028;-57
2022/04/28 04:41:58;;;;;;;6.75;5.40;;;6.00;63.10;;;;;;5097993;28;20043;-57
2022/04/28 04:44:24;;;;;;;9.15;5.85;;;6.00;63.30;;;;;;5097279;28;20079;-58
2022/04/28 04:46:50;;;;;;;10.85;5.82;;;6.10;63.40;;;;;;5097358;28;20167;-58
2022/04/28 04:49:17;;;;;;;8.60;5.60;;;6.10;63.50;;;;;;5098388;28;20375;-58
2022/04/28 04:51:43;;;;;;;10.80;6.22;;;6.10;63.60;;;;;;5093661;28;20056;-58
2022/04/28 04:54:09;;;;;;;9.85;5.88;;;6.10;63.70;;;;;;5104239;28;20094;-57
2022/04/28 04:56:36;;;;;;;8.98;6.20;;;6.20;63.70;;;;;;5085251;28;20036;-58
2022/04/28 04:59:02;;;;;;;10.63;5.68;;;6.30;63.90;;;;;;5094703;28;20111;-57
2022/04/28 05:01:28;;;;;;;9.48;6.22;;;6.30;64.00;;;;;;5090770;28;20028;-58
2022/04/28 05:03:53;;;;;;;9.45;6.50;;;6.40;64.00;;;;;;5097407;28;20091;-57
2022/04/28 05:06:19;;;;;;;12.18;6.43;;;6.50;64.20;;;;;;5104338;28;20512;-58
2022/04/28 05:08:44;;;;;;;13.05;7.07;;;6.50;64.30;;;;;;5108841;28;20019;-59
2022/04/28 05:11:10;;;;;;;14.77;7.03;;;6.60;64.40;;;;;;5100711;28;20091;-59
2022/04/28 05:13:36;;;;;;;17.02;7.80;;;6.70;64.30;;;;;;5099203;28;20111;-58
2022/04/28 05:16:01;;;;;;;11.18;7.30;;;6.80;64.40;;;;;;5094907;28;20098;-57
2022/04/28 05:18:28;;;;;;;16.63;6.82;;;6.90;64.30;;;;;;5098431;28;20059;-59
2022/04/28 05:20:53;;;;;;;8.55;5.90;;;7.00;64.30;;;;;;5093377;28;20032;-59
2022/04/28 05:23:20;;;;;;;9.10;5.22;;;7.10;64.30;;;;;;5097707;28;20055;-58
2022/04/28 05:25:46;;;;;;;8.85;4.85;;;7.20;64.30;;;;;;5096697;28;20081;-59
2022/04/28 05:28:12;;;;;;;9.40;5.72;;;7.40;64.30;;;;;;5104501;28;20399;-57
2022/04/28 05:30:37;;;;;;;11.27;5.47;;;7.50;64.40;;;;;;5099795;28;20033;-58
2022/04/28 05:33:03;;;;;;;10.02;5.50;;;7.60;64.40;;;;;;5110111;28;20028;-58
2022/04/28 05:35:29;;;;;;;10.02;5.85;;;7.70;64.40;;;;;;5102459;28;20044;-58
2022/04/28 05:37:55;;;;;;;7.75;5.30;;;7.80;64.30;;;;;;5108225;28;20144;-57
2022/04/28 05:40:22;;;;;;;9.93;5.32;;;8.00;64.20;;;;;;5096557;28;20035;-57
2022/04/28 05:45:45;;;;;;;10.70;5.20;;;8.30;64.10;;;;;;5097290;28;20043;-59
2022/04/28 05:48:18;;;;;;;9.48;5.80;;;8.40;64.00;;;;;;5096252;28;20028;-58
2022/04/28 05:50:45;;;;;;;9.55;5.20;;;8.60;63.90;;;;;;5096609;28;20040;-58
2022/04/28 05:53:11;;;;;;;16.38;5.30;;;8.70;63.80;;;;;;5097855;28;20103;-59
2022/04/28 05:55:37;;;;;;;12.73;5.78;;;8.80;63.80;;;;;;5092802;28;20044;-58
2022/04/28 05:58:03;;;;;;;14.45;5.35;;;9.00;63.90;;;;;;5094440;28;20043;-59
2022/04/28 06:00:31;;;;;;;16.58;5.53;;;9.10;63.80;;;;;;5104822;28;20028;-57
2022/04/28 06:02:56;;;;;;;10.45;5.85;;;9.30;63.70;;;;;;5103460;28;20032;-57
2022/04/28 06:05:22;;;;;;;15.13;6.53;;;9.40;63.40;;;;;;5105458;28;20037;-58
2022/04/28 06:07:49;;;;;;;12.63;5.75;;;9.60;63.30;;;;;;5104081;28;20086;-58
2022/04/28 06:10:15;;;;;;;9.95;6.10;;;9.70;63.10;;;;;;5104032;28;20382;-58
2022/04/28 06:12:41;;;;;;;10.00;6.18;;;9.80;63.00;;;;;;5101424;28;20032;-59
2022/04/28 06:15:08;;;;;;;15.25;6.60;;;10.00;62.90;;;;;;5096613;28;20033;-57
2022/04/28 06:17:33;;;;;;;12.57;6.47;;;10.10;62.80;;;;;;5087478;28;20040;-59
2022/04/28 06:19:59;;;;;;;7.60;5.78;;;10.30;62.80;;;;;;5091135;28;20028;-57
2022/04/28 06:22:25;;;;;;;12.02;6.35;;;10.50;62.80;;;;;;5097574;28;20411;-59
2022/04/28 06:24:55;;;;;;;12.73;6.38;;;10.70;62.90;;;;;;5108046;28;20089;-58
2022/04/28 06:27:22;;;;;;;9.23;6.13;;;10.80;62.70;;;;;;5102732;28;20042;-57
2022/04/28 06:29:49;;;;;;;9.75;6.18;;;10.90;62.70;;;;;;5102488;28;20084;-58
2022/04/28 06:32:21;;;;;;;12.88;6.90;;;11.10;62.80;;;;;;5092784;28;20028;-59
2022/04/28 06:34:47;;;;;;;10.15;6.93;;;11.30;62.90;;;;;;5106399;28;20138;-57
2022/04/28 06:37:14;;;;;;;9.45;6.13;;;11.40;62.60;;;;;;5100533;28;20020;-58
2022/04/28 06:39:40;;;;;;;8.88;6.38;;;11.60;62.50;;;;;;5093210;28;20577;-58
2022/04/28 06:42:07;;;;;;;9.20;6.45;;;11.80;62.40;;;;;;5099847;28;20091;-59
2022/04/28 06:44:33;;;;;;;14.27;6.70;;;11.90;62.10;;;;;;5102465;28;20032;-57
2022/04/28 06:46:59;;;;;;;6.47;5.78;;;12.10;61.80;;;;;;5095174;28;20028;-57
2022/04/28 06:49:25;;;;;;;11.75;5.82;;;12.30;61.50;;;;;;5104773;28;20518;-58
2022/04/28 06:51:51;;;;;;;21.13;6.07;;;12.50;61.10;;;;;;5093051;28;20029;-58
2022/04/28 06:54:17;;;;;;;15.70;6.55;;;12.70;61.10;;;;;;5099902;28;20451;-57
2022/04/28 06:56:43;;;;;;;8.60;6.57;;;12.90;60.80;;;;;;5109577;28;20051;-58
2022/04/28 06:59:09;;;;;;;6.97;5.45;;;13.10;60.50;;;;;;5104551;28;20031;-58
2022/04/28 07:01:34;;;;;;;6.13;4.90;;;13.20;60.30;;;;;;5107583;28;20021;-59
2022/04/28 07:04:01;;;;;;;7.13;5.18;;;13.30;59.90;;;;;;5103760;28;20032;-58
2022/04/28 07:06:26;;;;;;;7.53;4.72;;;13.50;59.90;;;;;;5102126;28;20025;-59
2022/04/28 07:08:52;;;;;;;6.50;5.53;;;13.70;59.70;;;;;;5105478;28;20024;-59
2022/04/28 07:11:18;;;;;;;9.07;5.68;;;13.90;59.80;;;;;;5104001;28;20040;-58
2022/04/28 07:13:43;;;;;;;5.47;4.85;;;14.10;59.70;;;;;;5105334;28;20020;-59
2022/04/28 07:16:09;;;;;;;13.63;6.10;;;14.30;59.50;;;;;;5109043;28;20044;-58
2022/04/28 07:18:34;;;;;;;9.10;6.00;;;14.40;59.20;;;;;;5100798;28;20039;-58
2022/04/28 07:21:01;;;;;;;7.53;6.28;;;14.60;59.00;;;;;;5097857;28;20020;-59
2022/04/28 07:23:27;;;;;;;8.30;6.72;;;14.80;58.70;;;;;;5100657;28;20085;-58
2022/04/28 07:25:53;;;;;;;7.60;5.80;;;14.90;58.20;;;;;;5107098;28;20513;-58
2022/04/28 07:28:19;;;;;;;9.43;6.70;;;15.00;58.10;;;;;;5104962;28;20039;-58
2022/04/28 07:30:44;;;;;;;6.82;5.53;;;15.10;58.00;;;;;;5101254;28;20367;-58
2022/04/28 07:33:11;;;;;;;6.95;5.93;;;15.30;57.90;;;;;;5108516;28;20163;-59
2022/04/28 07:35:37;;;;;;;7.65;5.85;;;15.40;57.80;;;;;;5102041;28;20035;-58
2022/04/28 07:38:03;;;;;;;7.55;5.05;;;15.50;57.40;;;;;;5110046;28;20036;-59
2022/04/28 07:40:29;;;;;;;6.25;5.38;;;15.70;57.10;;;;;;5104656;28;20024;-58
2022/04/28 07:42:56;;;;;;;7.43;5.43;;;15.80;56.60;;;;;;5106787;28;20020;-59
2022/04/28 07:45:25;;;;;;;7.28;5.32;;;15.90;56.30;;;;;;5107064;28;20028;-59
2022/04/28 07:47:51;;;;;;;16.02;5.60;;;16.00;55.80;;;;;;5108463;28;20024;-58
2022/04/28 07:50:17;;;;;;;7.47;5.32;;;16.10;55.30;;;;;;5098998;28;20194;-58
2022/04/28 07:52:44;;;;;;;6.75;4.78;;;16.20;55.10;;;;;;5107664;28;20088;-58
2022/04/28 07:55:10;;;;;;;7.13;5.47;;;16.30;55.00;;;;;;5102979;28;20028;-58
2022/04/28 07:57:36;;;;;;;6.47;4.80;;;16.40;54.80;;;;;;5107560;28;20046;-58
2022/04/28 08:00:04;;;;;;;5.80;4.88;;;16.50;54.80;;;;;;5092615;28;20020;-58
2022/04/28 08:02:30;;;;;;;5.82;4.85;;;16.60;54.60;;;;;;5099551;28;20031;-58
2022/04/28 08:04:56;;;;;;;6.97;4.22;;;16.70;54.50;;;;;;5105467;28;20019;-58
2022/04/28 08:07:21;;;;;;;8.68;4.50;;;16.90;53.70;;;;;;5101148;28;20024;-58
2022/04/28 08:09:47;;;;;;;5.45;4.40;;;17.00;52.70;;;;;;5094882;28;20488;-58
2022/04/28 08:12:13;;;;;;;8.07;4.57;;;17.00;52.80;;;;;;5105020;28;20044;-58
2022/04/28 08:14:39;;;;;;;6.00;4.60;;;17.10;52.90;;;;;;5109061;28;20035;-58
2022/04/28 08:17:05;;;;;;;6.13;4.60;;;17.20;53.00;;;;;;5101605;28;20028;-58
2022/04/28 08:19:32;;;;;;;7.18;4.53;;;17.30;52.60;;;;;;5102223;28;20039;-58
2022/04/28 08:21:58;;;;;;;5.15;4.28;;;17.40;52.10;;;;;;5100886;28;20028;-58
2022/04/28 08:24:33;;;;;;;5.05;4.18;;;17.50;52.00;;;;;;5103346;28;20716;-58
2022/04/28 08:26:59;;;;;;;5.65;4.43;;;17.60;51.40;;;;;;5097732;28;20017;-58
2022/04/28 08:29:25;;;;;;;6.82;4.13;;;17.70;51.30;;;;;;5104301;28;20034;-58
2022/04/28 08:31:51;;;;;;;5.80;4.10;;;17.80;51.30;;;;;;5100642;28;20039;-60
2022/04/28 08:34:22;;;;;;;5.22;4.15;;;17.90;50.30;;;;;;5102975;28;20024;-59
2022/04/28 08:36:49;;;;;;;4.47;3.70;;;18.00;50.40;;;;;;5098790;28;20490;-58
2022/04/28 08:39:15;;;;;;;6.35;4.38;;;18.10;49.90;;;;;;5090444;28;20032;-58
2022/04/28 08:41:45;;;;;;;5.03;4.03;;;18.20;49.60;;;;;;5099109;28;20054;-58
2022/04/28 08:44:20;;;;;;;5.70;4.22;;;18.20;49.40;;;;;;5092933;28;20096;-59
2022/04/28 08:46:52;;;;;;;;;;;18.30;48.30;;;;;;5092759;28;20024;-59
2022/04/28 08:49:28;;;;;;;9.52;3.75;;;18.40;49.40;;;;;;5096898;28;19916;-58
2022/04/28 08:51:57;;;;;;;5.55;4.10;;;18.40;48.60;;;;;;5097428;28;20030;-58
2022/04/28 08:54:26;;;;;;;5.88;4.38;;;18.50;48.20;;;;;;5101533;28;20047;-59
2022/04/28 08:56:54;;;;;;;5.65;3.85;;;18.50;47.60;;;;;;5110567;28;20027;-59
2022/04/28 08:59:21;;;;;;;7.13;4.18;;;18.60;48.10;;;;;;5106076;28;20039;-60
2022/04/28 09:01:47;;;;;;;12.88;3.95;;;18.70;48.00;;;;;;5104291;28;20045;-58
2022/04/28 09:04:12;;;;;;;6.25;3.90;;;18.80;47.90;;;;;;5102433;28;20087;-60
2022/04/28 09:06:41;;;;;;;5.95;4.18;;;18.90;47.60;;;;;;5097867;28;20028;-58
2022/04/28 09:09:15;;;;;;;5.65;4.13;;;18.90;46.40;;;;;;5105472;28;20036;-59
2022/04/28 09:11:42;;;;;;;6.63;3.78;;;19.00;46.30;;;;;;5100414;28;20016;-59
2022/04/28 09:14:09;;;;;;;7.80;4.05;;;19.10;46.60;;;;;;5105955;28;20451;-58
2022/04/28 09:16:49;;;;;;;6.22;4.05;;;19.20;46.00;;;;;;5107896;28;20027;-60
2022/04/28 09:19:41;;;;;;;5.10;3.97;;;19.20;46.20;;;;;;5103283;28;20028;-59
2022/04/28 09:22:09;;;;;;;4.80;4.00;;;19.40;45.60;;;;;;5094874;28;20043;-60
2022/04/28 09:24:37;;;;;;;4.53;4.05;;;19.50;46.70;;;;;;5108857;28;20409;-59
2022/04/28 09:27:03;;;;;;;5.28;3.92;;;19.60;46.30;;;;;;5096107;28;20028;-59
2022/04/28 09:29:32;;;;;;;4.85;3.92;;;19.70;46.20;;;;;;5098838;28;20082;-59
2022/04/28 09:31:58;;;;;;;7.03;4.35;;;19.80;45.60;;;;;;5097841;28;20031;-60
2022/04/28 09:34:25;;;;;;;5.75;4.13;;;19.90;45.20;;;;;;5104826;28;20028;-60
2022/04/28 09:36:51;;;;;;;6.60;4.32;;;20.00;44.80;;;;;;5110224;28;20032;-60
2022/04/28 09:44:56;;;;;;;5.38;3.85;;;20.10;44.40;;;;;;5101295;28;20039;-59
2022/04/28 09:47:23;;;;;;;4.10;3.35;;;20.20;44.10;;;;;;5107133;28;20036;-60
2022/04/28 09:49:53;;;;;;;4.97;4.07;;;20.20;43.80;;;;;;5098598;28;20070;-59
2022/04/28 09:52:20;;;;;;;6.45;3.88;;;20.30;44.20;;;;;;5110146;28;20111;-58
2022/04/28 09:54:50;;;;;;;6.22;4.60;;;20.40;43.60;;;;;;5107684;28;20036;-58
2022/04/28 09:57:17;;;;;;;8.55;4.45;;;20.40;43.80;;;;;;5105203;28;20162;-59
2022/04/28 09:59:44;;;;;;;14.93;3.83;;;20.50;43.80;;;;;;5105231;28;20047;-60
2022/04/28 10:02:13;;;;;;;76.57;10.95;;;20.50;43.90;;;;;;5104212;28;20026;-59
2022/04/28 10:04:41;;;;;;;6.90;3.67;;;20.60;43.20;;;;;;5101847;28;20023;-60
2022/04/28 10:07:08;;;;;;;5.80;3.53;;;20.60;42.80;;;;;;5100377;28;20032;-59
2022/04/28 10:09:35;;;;;;;5.20;3.35;;;20.70;42.70;;;;;;5100581;28;20024;-59
2022/04/28 10:12:03;;;;;;;4.45;3.30;;;20.80;42.10;;;;;;5101047;28;20028;-60
2022/04/28 10:14:29;;;;;;;6.05;3.40;;;20.80;42.50;;;;;;5110843;28;20028;-59
2022/04/28 10:16:57;;;;;;;3.13;2.58;;;20.90;40.80;;;;;;5107761;28;20070;-61
2022/04/28 10:19:28;;;;;;;3.75;3.15;;;21.00;40.50;;;;;;5106052;28;20032;-60
2022/04/28 10:22:08;;;;;;;7.25;3.28;;;21.10;39.40;;;;;;5099963;28;20032;-60
2022/04/28 10:33:03;;;;;;;3.95;3.35;;;21.30;40.60;;;;;;5094696;28;20039;-58
2022/04/28 10:35:35;;;;;;;3.55;3.00;;;21.40;40.20;;;;;;5103746;28;20060;-58
2022/04/28 10:38:22;;;;;;;6.18;2.97;;;21.50;40.00;;;;;;5105287;28;20028;-60
2022/04/28 10:41:00;;;;;;;2.90;2.35;;;21.50;39.00;;;;;;5102394;28;20103;-59
2022/04/28 10:43:27;;;;;;;3.67;2.70;;;21.60;38.20;;;;;;5101599;28;20064;-59
2022/04/28 10:45:55;;;;;;;5.55;2.97;;;21.60;37.90;;;;;;5105304;28;20024;-59
2022/04/28 10:48:35;;;;;;;4.68;2.70;;;21.60;39.40;;;;;;5107270;28;20060;-59
2022/04/28 10:51:10;;;;;;;7.70;3.22;;;21.70;38.90;;;;;;5107773;28;20052;-58
2022/04/28 10:53:55;;;;;;;7.75;2.10;;;21.80;38.50;;;;;;5108341;28;20043;-60
2022/04/28 10:56:22;;;;;;;2.70;2.30;;;21.90;38.80;;;;;;5102270;28;20031;-59
2022/04/28 10:58:47;;;;;;;2.97;2.15;;;22.00;37.80;;;;;;5100482;28;20035;-59
2022/04/28 11:01:29;;;;;;;9.38;3.72;;;22.10;37.70;;;;;;5113050;28;20031;-59
2022/04/28 11:03:58;;;;;;;6.45;3.30;;;22.10;36.10;;;;;;5107516;28;20020;-59
2022/04/28 11:06:37;;;;;;;26.80;4.78;;;22.10;37.20;;;;;;5104436;28;20020;-60
2022/04/28 11:09:05;;;;;;;4.88;3.28;;;22.10;37.10;;;;;;5099829;28;20036;-59
2022/04/28 11:11:46;;;;;;;4.15;2.90;;;22.20;36.30;;;;;;5110014;28;20032;-59
2022/04/28 11:14:12;;;;;;;4.68;3.10;;;22.20;35.80;;;;;;5110163;28;20031;-59
2022/04/28 11:16:41;;;;;;;3.38;2.65;;;22.20;37.40;;;;;;5096656;28;20028;-59
2022/04/28 11:19:08;;;;;;;5.43;3.30;;;22.30;37.40;;;;;;5105968;28;20021;-60
2022/04/28 11:21:35;;;;;;;3.72;3.00;;;22.30;37.10;;;;;;5101981;28;20028;-59
2022/04/28 11:24:03;;;;;;;4.22;3.03;;;22.40;36.70;;;;;;5100911;28;20370;-59
2022/04/28 11:26:29;;;;;;;3.42;2.85;;;22.40;36.90;;;;;;5100454;28;20024;-60
2022/04/28 11:28:55;;;;;;;3.92;3.05;;;22.40;36.80;;;;;;5109513;28;20103;-59
2022/04/28 11:31:21;;;;;;;3.78;2.85;;;22.40;36.70;;;;;;5099068;28;20035;-60
2022/04/28 11:33:49;;;;;;;2.92;2.53;;;22.50;36.70;;;;;;5108672;28;20027;-59
2022/04/28 11:36:27;;;;;;;4.30;3.05;;;22.50;36.80;;;;;;5102834;28;20032;-60
2022/04/28 11:39:02;;;;;;;16.27;5.07;;;22.60;35.90;;;;;;5102038;28;20023;-60
2022/04/28 11:41:38;;;;;;;4.63;2.95;;;22.60;37.00;;;;;;5099382;28;20030;-59
2022/04/28 11:44:09;;;;;;;3.80;2.75;;;22.70;36.60;;;;;;5099047;28;20086;-59
2022/04/28 11:46:42;;;;;;;3.85;3.05;;;22.80;37.40;;;;;;5105954;28;20020;-59
2022/04/28 11:49:07;;;;;;;4.07;2.90;;;22.90;37.20;;;;;;5102217;28;20064;-59
2022/04/28 11:51:34;;;;;;;3.15;2.40;;;23.00;36.70;;;;;;5103634;28;20012;-59
2022/04/28 11:54:01;;;;;;;5.60;2.78;;;23.10;36.80;;;;;;5102908;28;20031;-59
2022/04/28 11:56:30;;;;;;;4.30;3.10;;;23.10;36.30;;;;;;5103045;28;20040;-59
2022/04/28 11:58:58;;;;;;;4.57;2.70;;;23.20;35.80;;;;;;5101884;28;20085;-59
2022/04/28 12:01:25;;;;;;;3.83;2.83;;;23.20;35.40;;;;;;5101197;28;20042;-59
2022/04/28 12:03:55;;;;;;;2.90;2.60;;;23.20;35.60;;;;;;5116576;28;20051;-59
2022/04/28 12:06:22;;;;;;;4.38;3.15;;;23.20;35.00;;;;;;5110823;28;20031;-60
2022/04/28 12:08:54;;;;;;;5.13;2.40;;;23.20;34.40;;;;;;5092970;28;20025;-60
2022/04/28 12:14:22;;;;;;;3.00;2.50;;;23.30;35.20;;;;;;5093838;28;20038;-59
2022/04/28 12:19:50;;;;;;;3.15;2.50;;;23.40;35.50;;;;;;5093032;28;20046;-58
2022/04/28 12:22:35;;;;;;;4.00;2.72;;;23.50;34.80;;;;;;5101049;28;20046;-60
2022/04/28 12:25:11;;;;;;;3.88;2.67;;;23.50;33.50;;;;;;5098726;28;20031;-59
2022/04/28 12:27:50;;;;;;;3.33;2.95;;;23.40;34.60;;;;;;5101617;28;20025;-59
2022/04/28 12:30:18;;;;;;;7.55;2.65;;;23.40;34.20;;;;;;5105751;28;20019;-59
2022/04/28 12:32:52;;;;;;;17.60;3.55;;;23.40;34.40;;;;;;5108020;28;20064;-59
2022/04/28 12:35:26;;;;;;;3.53;2.85;;;23.50;34.30;;;;;;5104403;28;20139;-59
2022/04/28 12:37:55;;;;;;;;;;;23.50;35.00;;;;;;5101311;28;20028;-59
2022/04/28 12:40:21;;;;;;;4.93;2.72;;;23.60;35.50;;;;;;5107110;28;19912;-59
2022/04/28 12:42:49;;;;;;;14.00;3.83;;;23.70;34.80;;;;;;5107155;28;20119;-60
2022/04/28 12:45:33;;;;;;;6.45;3.15;;;23.70;33.70;;;;;;5106449;28;20031;-59
2022/04/28 12:47:58;;;;;;;290.58;26.95;;;23.70;34.30;;;;;;5097450;28;20053;-59
2022/04/28 12:50:25;;;;;;;6.22;3.10;;;23.70;34.30;;;;;;5111339;28;20031;-59
2022/04/28 12:52:51;;;;;;;5.65;3.03;;;23.80;34.00;;;;;;5100137;28;20028;-58
2022/04/28 12:55:19;;;;;;;5.55;3.60;;;23.80;33.70;;;;;;5112420;28;20409;-59
2022/04/28 12:57:49;;;;;;;5.40;2.97;;;23.70;33.80;;;;;;5104712;28;20031;-59
2022/04/28 13:00:18;;;;;;;9.75;3.00;;;23.70;33.30;;;;;;5101562;28;20024;-60
2022/04/28 13:02:50;;;;;;;8.38;3.67;;;23.70;33.50;;;;;;5105212;28;20036;-59
2022/04/28 13:05:20;;;;;;;8.98;2.92;;;23.70;33.10;;;;;;5109616;28;20048;-59
2022/04/28 13:07:46;;;;;;;3.33;2.72;;;23.70;32.70;;;;;;5105912;28;20024;-61
2022/04/28 13:10:17;;;;;;;3.92;3.15;;;23.70;33.50;;;;;;5109056;28;20064;-60
2022/04/28 13:12:43;;;;;;;4.68;2.80;;;23.70;32.90;;;;;;5102429;28;20082;-60
2022/04/28 13:15:09;;;;;;;4.57;2.97;;;23.80;32.90;;;;;;5106217;28;20055;-59
2022/04/28 13:17:36;;;;;;;5.68;3.35;;;23.80;33.00;;;;;;5104967;28;20119;-59
2022/04/28 13:20:04;;;;;;;4.47;3.05;;;23.90;32.40;;;;;;5111734;28;20027;-59
2022/04/28 13:22:30;;;;;;;4.30;3.05;;;23.90;32.50;;;;;;5106474;28;20081;-59
2022/04/28 13:24:55;;;;;;;5.57;3.60;;;24.00;32.40;;;;;;5108154;28;20025;-60
2022/04/28 13:27:21;;;;;;;5.15;2.90;;;24.10;31.90;;;;;;5103488;28;20030;-60
2022/04/28 13:29:47;;;;;;;2.75;2.55;;;24.20;31.70;;;;;;5088409;28;20031;-59